createdAt,value
2022-10-13T00:01:17.347Z,3.23
2022-10-13T00:03:47.538Z,4.00
2022-10-13T00:06:24.090Z,3.63
2022-10-13T00:08:51.837Z,3.80
2022-10-13T00:11:20.152Z,3.90
2022-10-13T00:13:48.725Z,3.17
2022-10-13T00:16:18.591Z,3.10
2022-10-13T00:18:45.988Z,3.70
2022-10-13T00:21:16.617Z,3.63
2022-10-13T00:23:44.777Z,3.50
2022-10-13T00:26:14.190Z,4.00
2022-10-13T00:28:41.506Z,4.20
2022-10-13T00:31:24.107Z,4.17
2022-10-13T00:33:52.848Z,4.20
2022-10-13T00:36:22.914Z,3.80
2022-10-13T00:38:50.130Z,4.30
2022-10-13T00:41:17.788Z,4.43
2022-10-13T00:44:09.581Z,4.53
2022-10-13T00:46:38.099Z,4.93
2022-10-13T00:49:10.473Z,6.13
2022-10-13T00:51:44.772Z,6.50
2022-10-13T00:54:17.287Z,6.20
2022-10-13T00:56:45.701Z,6.67
2022-10-13T00:59:27.059Z,7.33
2022-10-13T01:01:54.069Z,6.03
2022-10-13T01:04:25.325Z,5.97
2022-10-13T01:06:53.764Z,5.77
2022-10-13T01:09:20.627Z,5.63
2022-10-13T01:12:11.725Z,5.87
2022-10-13T01:14:48.558Z,6.47
2022-10-13T01:17:54.369Z,5.53
2022-10-13T01:20:33.195Z,6.23
2022-10-13T01:23:18.580Z,6.20
2022-10-13T01:26:06.321Z,5.93
2022-10-13T01:28:34.256Z,5.97
2022-10-13T01:31:14.098Z,5.77
2022-10-13T01:33:46.276Z,6.60
2022-10-13T01:36:32.744Z,6.43
2022-10-13T01:39:08.334Z,5.80
2022-10-13T01:41:46.787Z,6.27
2022-10-13T01:44:34.206Z,6.57
2022-10-13T01:47:02.549Z,6.33
2022-10-13T01:49:34.715Z,6.23
2022-10-13T01:52:12.018Z,6.30
2022-10-13T01:54:38.982Z,6.10
2022-10-13T01:57:29.436Z,5.63
2022-10-13T01:59:57.928Z,6.00
2022-10-13T02:03:02.790Z,5.57
2022-10-13T02:05:49.481Z,5.43
2022-10-13T02:08:31.582Z,5.90
2022-10-13T02:11:02.359Z,5.87
2022-10-13T02:13:32.363Z,5.27
2022-10-13T02:16:01.563Z,5.40
2022-10-13T02:18:34.811Z,5.40
2022-10-13T02:21:05.209Z,5.27
2022-10-13T02:23:32.323Z,5.70
2022-10-13T02:26:00.117Z,5.87
2022-10-13T02:28:28.428Z,5.03
2022-10-13T02:30:55.325Z,4.57
2022-10-13T02:33:22.293Z,4.57
2022-10-13T02:35:49.141Z,4.73
2022-10-13T02:38:16.105Z,4.93
2022-10-13T02:40:43.209Z,5.43
2022-10-13T02:43:10.183Z,5.63
2022-10-13T02:45:37.238Z,5.70
2022-10-13T02:48:04.684Z,5.50
2022-10-13T02:50:32.027Z,5.90
2022-10-13T02:52:59.181Z,6.17
2022-10-13T02:55:26.269Z,5.67
2022-10-13T02:57:56.897Z,6.93
2022-10-13T03:00:24.141Z,6.57
2022-10-13T03:02:50.994Z,6.97
2022-10-13T03:05:18.521Z,6.80
2022-10-13T03:07:46.823Z,6.77
2022-10-13T03:10:14.170Z,6.50
2022-10-13T03:12:41.949Z,6.33
2022-10-13T03:15:10.136Z,6.70
2022-10-13T03:17:36.974Z,6.57
2022-10-13T03:20:04.941Z,7.40
2022-10-13T03:22:33.170Z,6.60
2022-10-13T03:25:00.708Z,6.77
2022-10-13T03:27:27.841Z,6.80
2022-10-13T03:29:55.031Z,5.60
2022-10-13T03:32:22.234Z,6.43
2022-10-13T03:34:50.069Z,5.80
2022-10-13T03:37:17.209Z,7.23
2022-10-13T03:39:44.345Z,6.83
2022-10-13T03:42:13.010Z,6.37
2022-10-13T03:44:40.585Z,7.30
2022-10-13T03:47:08.215Z,6.43
2022-10-13T03:49:35.077Z,6.80
2022-10-13T03:52:01.944Z,6.87
2022-10-13T03:54:29.200Z,6.80
2022-10-13T03:56:59.652Z,6.73
2022-10-13T03:59:34.146Z,6.93
2022-10-13T04:02:03.689Z,6.43
2022-10-13T04:04:30.607Z,7.03
2022-10-13T04:06:58.408Z,6.43
2022-10-13T04:09:28.247Z,6.70
2022-10-13T04:11:55.495Z,7.13
2022-10-13T04:14:22.396Z,6.33
2022-10-13T04:16:49.231Z,6.63
2022-10-13T04:19:16.508Z,6.97
2022-10-13T04:21:44.180Z,7.33
2022-10-13T04:24:14.860Z,6.70
2022-10-13T04:26:42.265Z,6.13
2022-10-13T04:29:12.329Z,6.97
2022-10-13T04:31:45.856Z,6.43
2022-10-13T04:34:15.359Z,6.40
2022-10-13T04:36:42.735Z,6.77
2022-10-13T04:39:12.180Z,7.30
2022-10-13T04:41:40.101Z,6.70
2022-10-13T04:44:11.160Z,6.00
2022-10-13T04:46:38.212Z,7.17
2022-10-13T04:49:16.559Z,6.67
2022-10-13T04:51:43.597Z,6.70
2022-10-13T04:54:10.805Z,7.27
2022-10-13T04:56:42.865Z,6.90
2022-10-13T04:59:11.837Z,6.40
2022-10-13T05:01:39.417Z,7.67
2022-10-13T05:04:15.724Z,8.10
2022-10-13T05:07:16.056Z,7.67
2022-10-13T05:09:35.731Z,8.07
2022-10-13T05:12:07.678Z,8.13
2022-10-13T05:14:35.106Z,7.43
2022-10-13T05:17:04.769Z,7.20
2022-10-13T05:19:34.719Z,7.77
2022-10-13T05:22:02.596Z,7.63
2022-10-13T05:24:36.801Z,6.77
2022-10-13T05:27:12.396Z,7.20
2022-10-13T05:29:41.938Z,7.30
2022-10-13T05:32:08.997Z,7.03
2022-10-13T05:34:36.937Z,7.80
2022-10-13T05:37:05.333Z,7.27
2022-10-13T05:39:33.516Z,7.23
2022-10-13T05:42:02.769Z,7.77
2022-10-13T05:44:31.875Z,7.90
2022-10-13T05:47:02.530Z,7.77
2022-10-13T05:49:32.136Z,7.47
2022-10-13T05:52:06.765Z,7.43
2022-10-13T05:54:42.317Z,8.53
2022-10-13T05:57:17.823Z,6.80
2022-10-13T05:59:55.282Z,7.07
2022-10-13T06:02:27.002Z,6.70
2022-10-13T06:04:57.214Z,7.43
2022-10-13T06:07:25.170Z,6.73
2022-10-13T06:09:52.144Z,7.63
2022-10-13T06:12:19.690Z,7.10
2022-10-13T06:14:47.467Z,7.50
2022-10-13T06:17:15.110Z,7.53
2022-10-13T06:19:45.356Z,8.27
2022-10-13T06:22:12.440Z,7.03
2022-10-13T06:24:39.397Z,6.87
2022-10-13T06:27:10.866Z,7.13
2022-10-13T06:29:38.400Z,7.53
2022-10-13T06:32:25.076Z,7.47
2022-10-13T06:34:52.130Z,8.33
2022-10-13T06:37:27.121Z,7.87
2022-10-13T06:39:57.170Z,7.93
2022-10-13T06:42:24.155Z,8.43
2022-10-13T06:45:09.935Z,7.87
2022-10-13T06:47:41.200Z,7.07
2022-10-13T06:50:08.799Z,7.60
2022-10-13T06:52:39.937Z,8.83
2022-10-13T06:55:07.055Z,7.60
2022-10-13T06:57:35.039Z,8.43
2022-10-13T07:00:06.750Z,7.97
2022-10-13T07:02:34.382Z,8.03
2022-10-13T07:05:03.141Z,10.00
2022-10-13T07:07:32.913Z,8.93
2022-10-13T07:10:00.365Z,7.63
2022-10-13T07:12:28.859Z,7.90
2022-10-13T07:14:55.806Z,6.37
2022-10-13T07:17:23.116Z,7.90
2022-10-13T07:19:52.786Z,6.97
2022-10-13T07:22:23.079Z,7.40
2022-10-13T07:24:50.103Z,8.37
2022-10-13T07:27:18.291Z,7.47
2022-10-13T07:29:46.168Z,6.13
2022-10-13T07:32:14.829Z,7.60
2022-10-13T07:34:41.803Z,6.13
2022-10-13T07:37:11.109Z,5.90
2022-10-13T07:39:38.655Z,5.83
2022-10-13T07:42:05.703Z,6.03
2022-10-13T07:44:32.977Z,5.30
2022-10-13T07:47:01.299Z,4.70
2022-10-13T07:49:28.694Z,5.10
2022-10-13T07:51:59.803Z,5.80
2022-10-13T07:54:27.610Z,6.07
2022-10-13T07:56:56.087Z,6.43
2022-10-13T07:59:24.614Z,5.73
2022-10-13T08:01:52.085Z,3.97
2022-10-13T08:04:19.186Z,5.00
2022-10-13T08:06:46.088Z,4.20
2022-10-13T08:09:16.347Z,4.13
2022-10-13T08:11:45.635Z,4.90
2022-10-13T08:17:16.420Z,6.57
2022-10-13T08:19:43.342Z,5.83
2022-10-13T08:22:13.597Z,4.87
2022-10-13T08:24:40.648Z,5.03
2022-10-13T08:27:11.901Z,5.27
2022-10-13T08:29:40.949Z,4.30
2022-10-13T08:32:08.115Z,4.60
2022-10-13T08:34:36.892Z,5.20
2022-10-13T08:37:04.716Z,3.80
2022-10-13T08:39:33.123Z,4.00
2022-10-13T08:42:00.621Z,3.73
2022-10-13T08:47:27.942Z,4.80
2022-10-13T08:50:00.694Z,4.13
2022-10-13T08:52:46.284Z,4.10
2022-10-13T08:55:38.492Z,3.80
2022-10-13T08:58:24.670Z,4.57
2022-10-13T09:01:11.383Z,4.33
2022-10-13T09:03:49.665Z,5.03
2022-10-13T09:06:16.674Z,4.87
2022-10-13T09:08:52.392Z,3.80
2022-10-13T09:11:20.889Z,4.60
2022-10-13T09:13:48.180Z,5.03
2022-10-13T09:19:16.131Z,3.77
2022-10-13T09:21:45.917Z,3.53
2022-10-13T09:24:16.353Z,3.83
2022-10-13T09:26:45.069Z,3.90
2022-10-13T09:29:18.072Z,3.93
2022-10-13T09:31:45.824Z,4.60
2022-10-13T09:34:18.887Z,4.50
2022-10-13T09:37:03.417Z,4.10
2022-10-13T09:39:32.167Z,3.93
2022-10-13T09:42:24.204Z,4.03
2022-10-13T09:45:23.244Z,3.87
2022-10-13T09:47:56.201Z,3.17
2022-10-13T09:50:31.984Z,3.97
2022-10-13T09:53:23.026Z,4.73
2022-10-13T09:55:50.385Z,4.40
2022-10-13T09:58:32.293Z,4.00
2022-10-13T10:01:00.036Z,3.77
2022-10-13T10:03:34.578Z,3.90
2022-10-13T10:06:07.856Z,3.73
2022-10-13T10:09:04.835Z,3.43
2022-10-13T10:11:40.477Z,3.43
2022-10-13T10:14:24.974Z,3.57
2022-10-13T10:17:21.798Z,3.10
2022-10-13T10:20:20.726Z,4.23
2022-10-13T10:23:05.245Z,3.60
2022-10-13T10:25:42.144Z,3.77
2022-10-13T10:28:15.905Z,3.70
2022-10-13T10:30:55.856Z,3.60
2022-10-13T10:33:45.196Z,3.40
2022-10-13T10:36:18.011Z,3.50
2022-10-13T10:38:52.886Z,3.50
2022-10-13T10:41:31.510Z,3.60
2022-10-13T10:44:31.612Z,3.93
2022-10-13T10:47:27.245Z,3.80
2022-10-13T10:50:23.199Z,3.63
2022-10-13T10:53:04.973Z,3.87
2022-10-13T10:55:55.241Z,3.93
2022-10-13T10:58:31.963Z,4.57
2022-10-13T11:01:23.015Z,3.37
2022-10-13T11:04:04.685Z,3.40
2022-10-13T11:06:36.997Z,3.30
2022-10-13T11:09:06.336Z,3.50
2022-10-13T11:11:37.956Z,3.57
2022-10-13T11:14:24.074Z,3.37
2022-10-13T11:17:08.892Z,3.63
2022-10-13T11:19:46.600Z,3.47
2022-10-13T11:22:21.212Z,3.77
2022-10-13T11:25:13.086Z,4.07
2022-10-13T11:27:42.028Z,3.80
2022-10-13T11:30:41.507Z,8.47
2022-10-13T11:33:39.384Z,3.93
2022-10-13T11:36:39.558Z,4.10
2022-10-13T11:39:28.338Z,3.60
2022-10-13T11:42:42.153Z,4.27
2022-10-13T11:45:49.149Z,3.37
2022-10-13T11:49:03.356Z,3.80
2022-10-13T11:51:37.371Z,3.00
2022-10-13T11:54:19.310Z,3.20
2022-10-13T11:56:51.927Z,2.73
2022-10-13T11:59:27.646Z,3.40
2022-10-13T12:02:05.575Z,3.77
2022-10-13T12:04:36.469Z,3.40
2022-10-13T12:07:08.099Z,3.63
2022-10-13T12:09:56.889Z,2.70
2022-10-13T12:12:26.002Z,3.53
2022-10-13T12:14:55.753Z,3.80
2022-10-13T12:17:28.058Z,3.20
2022-10-13T12:20:01.208Z,2.50
2022-10-13T12:22:31.546Z,3.07
2022-10-13T12:25:04.637Z,3.10
2022-10-13T12:27:47.797Z,2.93
2022-10-13T12:30:35.880Z,2.40
2022-10-13T12:33:04.923Z,2.60
2022-10-13T12:35:34.731Z,3.33
2022-10-13T12:38:05.816Z,3.30
2022-10-13T12:40:35.520Z,3.00
2022-10-13T12:43:04.386Z,3.27
2022-10-13T12:45:34.443Z,3.53
2022-10-13T12:48:01.519Z,3.00
2022-10-13T12:50:31.560Z,3.53
2022-10-13T12:53:15.332Z,2.47
2022-10-13T12:55:53.290Z,3.03
2022-10-13T12:58:27.834Z,2.73
2022-10-13T13:00:57.728Z,3.50
2022-10-13T13:03:28.914Z,2.90
2022-10-13T13:06:15.094Z,3.00
2022-10-13T13:08:43.395Z,2.40
2022-10-13T13:11:42.535Z,3.10
2022-10-13T13:14:45.014Z,2.83
2022-10-13T13:17:27.658Z,3.20
2022-10-13T13:20:23.013Z,3.03
2022-10-13T13:22:50.880Z,2.73
2022-10-13T13:25:17.835Z,3.50
2022-10-13T13:27:45.436Z,2.80
2022-10-13T13:30:21.378Z,3.60
2022-10-13T13:32:53.233Z,3.30
2022-10-13T13:35:21.843Z,3.70
2022-10-13T13:37:53.198Z,3.30
2022-10-13T13:40:25.806Z,3.00
2022-10-13T13:42:55.891Z,3.43
2022-10-13T13:45:26.380Z,3.17
2022-10-13T13:47:59.469Z,3.07
2022-10-13T13:50:36.108Z,3.20
2022-10-13T13:53:04.288Z,2.73
2022-10-13T13:55:31.559Z,3.03
2022-10-13T13:57:58.517Z,3.23
2022-10-13T14:00:25.750Z,3.00
2022-10-13T14:06:20.419Z,3.37
2022-10-13T14:08:47.851Z,2.40
2022-10-13T14:11:14.894Z,2.30
2022-10-13T14:13:41.918Z,2.60
2022-10-13T14:16:16.135Z,3.20
2022-10-13T14:18:43.087Z,2.67
2022-10-13T14:21:09.959Z,2.67
2022-10-13T14:23:36.855Z,2.70
2022-10-13T14:26:55.204Z,3.20
2022-10-13T14:29:22.100Z,2.77
2022-10-13T14:31:49.020Z,2.30
2022-10-13T14:34:15.943Z,3.80
2022-10-13T14:36:42.847Z,2.50
2022-10-13T14:39:10.067Z,2.93
2022-10-13T14:41:39.027Z,3.53
2022-10-13T14:44:05.902Z,2.90
2022-10-13T14:46:32.886Z,2.57
2022-10-13T14:49:00.421Z,2.90
2022-10-13T14:51:27.298Z,2.87
2022-10-13T14:53:54.342Z,2.40
2022-10-13T14:56:23.616Z,2.20
2022-10-13T14:58:54.139Z,4.37
2022-10-13T15:01:24.136Z,2.63
2022-10-13T15:03:52.346Z,3.00
2022-10-13T15:06:25.061Z,4.00
2022-10-13T15:08:57.990Z,4.73
2022-10-13T15:11:37.959Z,5.17
2022-10-13T15:14:13.367Z,6.53
2022-10-13T15:16:44.787Z,6.07
2022-10-13T15:19:18.567Z,3.90
2022-10-13T15:21:46.075Z,3.07
2022-10-13T15:24:13.030Z,2.83
2022-10-13T15:29:33.661Z,4.17
2022-10-13T15:32:17.944Z,5.20
2022-10-13T15:35:00.990Z,3.93
2022-10-13T15:37:45.419Z,2.83
2022-10-13T15:40:12.758Z,2.53
2022-10-13T15:42:40.208Z,2.53
2022-10-13T15:45:10.347Z,2.90
2022-10-13T15:47:38.189Z,3.23
2022-10-13T15:50:05.343Z,3.43
2022-10-13T15:52:34.918Z,2.90
2022-10-13T15:55:02.338Z,2.40
2022-10-13T15:57:31.450Z,2.17
2022-10-13T15:59:58.352Z,2.17
2022-10-13T16:02:25.533Z,1.97
2022-10-13T16:04:53.632Z,2.20
2022-10-13T16:07:20.546Z,2.20
2022-10-13T16:09:48.809Z,2.20
2022-10-13T16:12:15.973Z,2.80
2022-10-13T16:14:42.965Z,2.47
2022-10-13T16:17:09.950Z,2.43
2022-10-13T16:19:36.801Z,2.37
2022-10-13T16:22:04.045Z,2.37
2022-10-13T16:24:30.987Z,2.43
2022-10-13T16:26:57.897Z,5.50
2022-10-13T16:29:26.070Z,5.80
2022-10-13T16:31:53.042Z,8.20
2022-10-13T16:34:20.748Z,6.50
2022-10-13T16:36:47.605Z,6.90
2022-10-13T16:39:14.491Z,5.20
2022-10-13T16:41:41.424Z,7.43
2022-10-13T16:44:08.541Z,4.90
2022-10-13T16:46:35.495Z,3.10
2022-10-13T16:49:02.478Z,3.63
2022-10-13T16:51:29.758Z,2.77
2022-10-13T16:54:02.956Z,4.00
2022-10-13T16:56:31.146Z,4.60
2022-10-13T16:59:05.175Z,4.00
2022-10-13T17:01:33.651Z,4.60
2022-10-13T17:04:03.129Z,4.40
2022-10-13T17:06:30.321Z,4.53
2022-10-13T17:08:58.956Z,4.10
2022-10-13T17:11:29.999Z,4.50
2022-10-13T17:14:01.711Z,4.60
2022-10-13T17:16:32.932Z,4.60
2022-10-13T17:19:00.126Z,5.20
2022-10-13T17:21:38.867Z,7.67
2022-10-13T17:24:08.824Z,7.10
2022-10-13T17:26:35.912Z,7.80
2022-10-13T17:29:03.264Z,5.77
2022-10-13T17:31:30.298Z,4.63
2022-10-13T17:33:57.311Z,6.33
2022-10-13T17:36:29.046Z,7.03
2022-10-13T17:39:01.709Z,6.17
2022-10-13T17:41:29.113Z,5.27
2022-10-13T17:43:57.138Z,6.50
2022-10-13T17:46:42.093Z,9.03
2022-10-13T17:49:11.699Z,6.80
2022-10-13T17:51:39.955Z,6.10
2022-10-13T17:54:11.454Z,4.90
2022-10-13T17:56:41.641Z,4.67
2022-10-13T17:59:09.929Z,7.40
2022-10-13T18:01:37.081Z,7.00
2022-10-13T18:04:06.995Z,10.50
2022-10-13T18:06:39.970Z,6.17
2022-10-13T18:09:09.400Z,4.80
2022-10-13T18:11:37.149Z,4.47
2022-10-13T18:14:05.014Z,7.03
2022-10-13T18:16:32.915Z,6.57
2022-10-13T18:18:59.795Z,6.30
2022-10-13T18:21:27.100Z,6.37
2022-10-13T18:23:55.878Z,6.43
2022-10-13T18:26:25.366Z,6.47
2022-10-13T18:28:53.343Z,5.70
2022-10-13T18:31:29.749Z,6.53
2022-10-13T18:34:02.391Z,7.33
2022-10-13T18:36:35.941Z,7.17
2022-10-13T18:39:12.788Z,6.80
2022-10-13T18:41:42.130Z,6.63
2022-10-13T18:44:09.769Z,7.50
2022-10-13T18:46:39.057Z,7.40
2022-10-13T19:06:35.615Z,7.53
2022-10-13T19:09:06.443Z,7.60
2022-10-13T19:11:37.333Z,5.73
2022-10-13T19:14:07.063Z,5.47
2022-10-13T19:16:37.315Z,5.00
2022-10-13T19:19:09.298Z,4.37
2022-10-13T19:21:39.126Z,4.80
2022-10-13T19:27:03.563Z,4.37
2022-10-13T19:29:33.208Z,4.10
2022-10-13T19:32:02.928Z,3.80
2022-10-13T19:37:22.647Z,4.07
2022-10-13T19:39:52.669Z,3.23
2022-10-13T19:42:36.583Z,3.07
2022-10-13T19:45:06.279Z,3.40
2022-10-13T19:47:37.108Z,2.73
2022-10-13T19:50:05.811Z,3.27
2022-10-13T19:52:33.241Z,3.20
2022-10-13T19:55:01.198Z,2.80
2022-10-13T19:57:36.406Z,2.70
2022-10-13T20:00:06.943Z,2.50
2022-10-13T20:02:41.479Z,3.23
2022-10-13T20:05:12.120Z,3.03
2022-10-13T20:07:39.817Z,2.70
2022-10-13T20:10:28.169Z,2.70
2022-10-13T20:12:55.035Z,2.80
2022-10-13T20:15:25.399Z,2.87
2022-10-13T20:18:01.545Z,3.40
2022-10-13T20:20:31.142Z,3.63
2022-10-13T20:22:59.873Z,4.17
2022-10-13T20:25:27.360Z,3.57
2022-10-13T20:27:55.008Z,3.47
2022-10-13T20:30:23.245Z,3.03
2022-10-13T20:32:53.528Z,4.47
2022-10-13T20:35:23.352Z,3.50
2022-10-13T20:37:51.364Z,3.87
2022-10-13T20:40:20.108Z,3.67
2022-10-13T20:42:54.432Z,4.30
2022-10-13T20:45:24.167Z,3.50
2022-10-13T20:47:52.192Z,3.60
2022-10-13T20:50:19.111Z,3.70
2022-10-13T20:52:46.087Z,3.50
2022-10-13T20:55:13.013Z,3.20
2022-10-13T20:57:41.279Z,4.13
2022-10-13T21:00:09.199Z,4.40
2022-10-13T21:02:38.355Z,3.40
2022-10-13T21:05:05.283Z,3.50
2022-10-13T21:07:33.967Z,3.60
2022-10-13T21:10:01.279Z,3.30
2022-10-13T21:12:30.782Z,3.60
2022-10-13T21:14:57.689Z,3.80
2022-10-13T21:17:25.247Z,3.60
2022-10-13T21:19:52.183Z,3.73
2022-10-13T21:22:19.058Z,3.67
2022-10-13T21:24:45.949Z,3.93
2022-10-13T21:27:12.921Z,3.63
2022-10-13T21:29:39.917Z,3.80
2022-10-13T21:32:06.842Z,3.87
2022-10-13T21:34:34.274Z,3.53
2022-10-13T21:37:01.141Z,3.80
2022-10-13T21:39:28.002Z,3.20
2022-10-13T21:41:54.891Z,3.27
2022-10-13T21:44:22.376Z,3.23
2022-10-13T21:46:49.267Z,3.43
2022-10-13T21:49:16.130Z,3.00
2022-10-13T21:51:43.014Z,3.07
2022-10-13T21:54:12.650Z,3.93
2022-10-13T21:56:40.581Z,3.77
2022-10-13T21:59:08.383Z,3.63
2022-10-13T22:01:35.704Z,3.37
2022-10-13T22:04:11.790Z,3.60
2022-10-13T22:06:38.811Z,3.70
2022-10-13T22:09:06.924Z,3.83
2022-10-13T22:11:37.206Z,3.13
2022-10-13T22:14:11.323Z,3.20
2022-10-13T22:16:41.357Z,3.43
2022-10-13T22:19:08.706Z,3.50
2022-10-13T22:21:39.377Z,3.63
2022-10-13T22:24:09.615Z,3.53
2022-10-13T22:26:39.276Z,3.93
2022-10-13T22:29:07.535Z,3.50
2022-10-13T22:31:35.789Z,4.00
2022-10-13T22:34:09.660Z,3.47
2022-10-13T22:36:39.924Z,3.67
2022-10-13T22:39:10.662Z,3.60
2022-10-13T22:41:37.636Z,3.40
2022-10-13T22:44:04.801Z,3.17
2022-10-13T22:46:37.878Z,2.90
2022-10-13T22:49:06.363Z,2.90
2022-10-13T22:51:36.745Z,2.73
2022-10-13T22:54:04.625Z,2.70
2022-10-13T22:56:33.275Z,2.87
2022-10-13T22:59:08.460Z,2.47
2022-10-13T23:01:35.912Z,2.40
2022-10-13T23:04:03.415Z,2.90
2022-10-13T23:06:34.815Z,2.63
2022-10-13T23:09:04.697Z,2.70
2022-10-13T23:11:32.044Z,2.30
2022-10-13T23:14:01.500Z,2.27
2022-10-13T23:16:28.878Z,2.60
2022-10-13T23:18:55.942Z,3.13
2022-10-13T23:21:26.239Z,2.37
2022-10-13T23:24:00.998Z,2.30
2022-10-13T23:26:28.663Z,2.50
2022-10-13T23:28:57.094Z,2.37
2022-10-13T23:31:24.548Z,2.70
2022-10-13T23:33:51.826Z,2.77
2022-10-13T23:36:25.255Z,2.30
2022-10-13T23:38:56.084Z,2.27
2022-10-13T23:41:23.267Z,2.40
2022-10-13T23:43:51.213Z,2.43
2022-10-13T23:46:19.268Z,2.67
2022-10-13T23:48:46.186Z,2.20
2022-10-13T23:51:20.172Z,2.40
2022-10-13T23:53:47.230Z,2.73
2022-10-13T23:56:16.057Z,3.07
2022-10-13T23:58:44.554Z,2.97
